Klar, wolkenlos
Klar, wolkenlos
Klar, wolkenlos
Klar, wolkenlos
Klar, wolkenlos
Klar, wolkenlos
Klar, wolkenlos
(°C)
25°
25°
23°
23°
20°
20°
19°
19°
17°
17°
16°
16°
15°
15°
(°C)
21°
20°
18°
17°
16°
14°
13°
SO
OSO
OSO
NO
NNW
NW
NW
(km/h)
13-27
7-21
5-13
3-7
4-6
5-8
5-8
(mm)
0
0
0
0
0
0
0
(%)
0
0
0
0
0
0
0

Sonnenhöhe

/ 0.4°
sun-icon
UV 8
07:28
20:41
Zunehmender Halbmond (75°)
11:31
02:31

METAR für Alcantarilla (LERI)

Zeit Bedingungen Temperatur/
Taupunkt
Wind Sichtweite Wetter Wolken Druck Änderung Roh
VFR 25°C / 3°C 140º 7kt 9700m - Clouds and Visibility OK 1022 No Significant change LERI 141800Z 14007KT CAVOK 25/03 Q1022 NOSIG
VFR 26°C / 2°C 130º 11kt 9700m - Clouds and Visibility OK 1022 No Significant change LERI 141730Z 13011KT CAVOK 26/02 Q1022 NOSIG
VFR 26°C / 3°C 140º variable 110º to 170º 9kt 9700m - Clouds and Visibility OK 1022 No Significant change LERI 141700Z 14009KT 110V170 CAVOK 26/03 Q1022 NOSIG
VFR 27°C / 3°C 140º variable 100º to 170º 8kt 9700m - Clouds and Visibility OK 1022 No Significant change LERI 141630Z 14008KT 100V170 CAVOK 27/03 Q1022 NOSIG
VFR 27°C / 4°C 160º variable 110º to 210º 6kt 9700m - Clouds and Visibility OK 1022 No Significant change LERI 141600Z 16006KT 110V210 CAVOK 27/04 Q1022 NOSIG
VFR 28°C / 3°C 120º variable 070º to 170º 9kt 9700m - Clouds and Visibility OK 1022 No Significant change LERI 141530Z 12009KT 070V170 CAVOK 28/03 Q1022 NOSIG
VFR 27°C / 4°C 120º variable 070º to 160º 10kt 9700m - Clouds and Visibility OK 1023 No Significant change LERI 141500Z 12010KT 070V160 CAVOK 27/04 Q1023 NOSIG
VFR 28°C / 4°C 50º variable 020º to 080º 11kt 9700m - Clouds and Visibility OK 1023 No Significant change LERI 141430Z 05011KT 020V080 CAVOK 28/04 Q1023 NOSIG
VFR 28°C / 4°C 80º variable 360º to 150º 7kt Gust 18kt 9700m - Clouds and Visibility OK 1023 No Significant change LERI 141400Z 08007G18KT 360V150 CAVOK 28/04 Q1023 NOSIG
VFR 27°C / 4°C 5kt 9700m - Clouds and Visibility OK 1023 No Significant change LERI 141330Z VRB05KT CAVOK 27/04 Q1023 NOSIG
VFR 27°C / 5°C 90º variable 010º to 160º 7kt Gust 20kt 9700m - Clouds and Visibility OK 1024 No Significant change LERI 141300Z 09007G20KT 010V160 CAVOK 27/05 Q1024 NOSIG
VFR 27°C / 3°C 140º variable 100º to 170º 11kt 9700m - Clouds and Visibility OK 1024 No Significant change LERI 141230Z 14011KT 100V170 CAVOK 27/03 Q1024 NOSIG
VFR 27°C / 4°C 90º variable 050º to 120º 11kt 9700m - Clouds and Visibility OK 1024 No Significant change LERI 141200Z 09011KT 050V120 CAVOK 27/04 Q1024 NOSIG
VFR 26°C / 4°C 80º variable 010º to 130º 7kt 9700m - Clouds and Visibility OK 1025 No Significant change LERI 141130Z 08007KT 010V130 CAVOK 26/04 Q1025 NOSIG
VFR 25°C / 4°C 5kt 9700m - Clouds and Visibility OK 1025 No Significant change LERI 141100Z VRB05KT CAVOK 25/04 Q1025 NOSIG
VFR 24°C / 4°C 3kt 9700m - Clouds and Visibility OK 1025 No Significant change LERI 141030Z VRB03KT CAVOK 24/04 Q1025 NOSIG
VFR 24°C / 4°C 2kt 9700m - Clouds and Visibility OK 1025 No Significant change LERI 141000Z VRB02KT CAVOK 24/04 Q1025 NOSIG
VFR 22°C / 4°C 2kt 9700m - Clouds and Visibility OK 1025 No Significant change LERI 140930Z VRB02KT CAVOK 22/04 Q1025 NOSIG
VFR 21°C / 4°C 1kt 9700m - Clouds and Visibility OK 1026 No Significant change LERI 140900Z VRB01KT CAVOK 21/04 Q1026 NOSIG
VFR 19°C / 4°C 1kt 9700m - Clouds and Visibility OK 1026 No Significant change LERI 140830Z VRB01KT CAVOK 19/04 Q1026 NOSIG
VFR 18°C / 4°C 2kt 9700m - Clouds and Visibility OK 1026 No Significant change LERI 140800Z VRB02KT CAVOK 18/04 Q1026 NOSIG
VFR 16°C / 4°C 2kt 9700m - Clouds and Visibility OK 1026 No Significant change LERI 140730Z VRB02KT CAVOK 16/04 Q1026 NOSIG
VFR 13°C / 4°C 1kt 9700m - Clouds and Visibility OK 1026 No Significant change LERI 140700Z VRB01KT CAVOK 13/04 Q1026 NOSIG
VFR 10°C / 5°C 2kt 9700m - Clouds and Visibility OK 1026 No Significant change LERI 140630Z VRB02KT CAVOK 10/05 Q1026 NOSIG

VFR

25°C / 3°C

[Mehr]
Wind 140º 7kt
Sichtweite 9700m
Wetter -
Wolken Clouds and Visibility OK
Druck 1022
Änderung No Significant change
Roh LERI 141800Z 14007KT CAVOK 25/03 Q1022 NOSIG

VFR

26°C / 2°C

[Mehr]
Wind 130º 11kt
Sichtweite 9700m
Wetter -
Wolken Clouds and Visibility OK
Druck 1022
Änderung No Significant change
Roh LERI 141730Z 13011KT CAVOK 26/02 Q1022 NOSIG

VFR

26°C / 3°C

[Mehr]
Wind 140º variable 110º to 170º 9kt
Sichtweite 9700m
Wetter -
Wolken Clouds and Visibility OK
Druck 1022
Änderung No Significant change
Roh LERI 141700Z 14009KT 110V170 CAVOK 26/03 Q1022 NOSIG

VFR

27°C / 3°C

[Mehr]
Wind 140º variable 100º to 170º 8kt
Sichtweite 9700m
Wetter -
Wolken Clouds and Visibility OK
Druck 1022
Änderung No Significant change
Roh LERI 141630Z 14008KT 100V170 CAVOK 27/03 Q1022 NOSIG

VFR

27°C / 4°C

[Mehr]
Wind 160º variable 110º to 210º 6kt
Sichtweite 9700m
Wetter -
Wolken Clouds and Visibility OK
Druck 1022
Änderung No Significant change
Roh LERI 141600Z 16006KT 110V210 CAVOK 27/04 Q1022 NOSIG

VFR

28°C / 3°C

[Mehr]
Wind 120º variable 070º to 170º 9kt
Sichtweite 9700m
Wetter -
Wolken Clouds and Visibility OK
Druck 1022
Änderung No Significant change
Roh LERI 141530Z 12009KT 070V170 CAVOK 28/03 Q1022 NOSIG

VFR

27°C / 4°C

[Mehr]
Wind 120º variable 070º to 160º 10kt
Sichtweite 9700m
Wetter -
Wolken Clouds and Visibility OK
Druck 1023
Änderung No Significant change
Roh LERI 141500Z 12010KT 070V160 CAVOK 27/04 Q1023 NOSIG

VFR

28°C / 4°C

[Mehr]
Wind 50º variable 020º to 080º 11kt
Sichtweite 9700m
Wetter -
Wolken Clouds and Visibility OK
Druck 1023
Änderung No Significant change
Roh LERI 141430Z 05011KT 020V080 CAVOK 28/04 Q1023 NOSIG

VFR

28°C / 4°C

[Mehr]
Wind 80º variable 360º to 150º 7kt Gust 18kt
Sichtweite 9700m
Wetter -
Wolken Clouds and Visibility OK
Druck 1023
Änderung No Significant change
Roh LERI 141400Z 08007G18KT 360V150 CAVOK 28/04 Q1023 NOSIG

VFR

27°C / 4°C

[Mehr]
Wind 5kt
Sichtweite 9700m
Wetter -
Wolken Clouds and Visibility OK
Druck 1023
Änderung No Significant change
Roh LERI 141330Z VRB05KT CAVOK 27/04 Q1023 NOSIG

VFR

27°C / 5°C

[Mehr]
Wind 90º variable 010º to 160º 7kt Gust 20kt
Sichtweite 9700m
Wetter -
Wolken Clouds and Visibility OK
Druck 1024
Änderung No Significant change
Roh LERI 141300Z 09007G20KT 010V160 CAVOK 27/05 Q1024 NOSIG

VFR

27°C / 3°C

[Mehr]
Wind 140º variable 100º to 170º 11kt
Sichtweite 9700m
Wetter -
Wolken Clouds and Visibility OK
Druck 1024
Änderung No Significant change
Roh LERI 141230Z 14011KT 100V170 CAVOK 27/03 Q1024 NOSIG

VFR

27°C / 4°C

[Mehr]
Wind 90º variable 050º to 120º 11kt
Sichtweite 9700m
Wetter -
Wolken Clouds and Visibility OK
Druck 1024
Änderung No Significant change
Roh LERI 141200Z 09011KT 050V120 CAVOK 27/04 Q1024 NOSIG

VFR

26°C / 4°C

[Mehr]
Wind 80º variable 010º to 130º 7kt
Sichtweite 9700m
Wetter -
Wolken Clouds and Visibility OK
Druck 1025
Änderung No Significant change
Roh LERI 141130Z 08007KT 010V130 CAVOK 26/04 Q1025 NOSIG

VFR

25°C / 4°C

[Mehr]
Wind 5kt
Sichtweite 9700m
Wetter -
Wolken Clouds and Visibility OK
Druck 1025
Änderung No Significant change
Roh LERI 141100Z VRB05KT CAVOK 25/04 Q1025 NOSIG

VFR

24°C / 4°C

[Mehr]
Wind 3kt
Sichtweite 9700m
Wetter -
Wolken Clouds and Visibility OK
Druck 1025
Änderung No Significant change
Roh LERI 141030Z VRB03KT CAVOK 24/04 Q1025 NOSIG

VFR

24°C / 4°C

[Mehr]
Wind 2kt
Sichtweite 9700m
Wetter -
Wolken Clouds and Visibility OK
Druck 1025
Änderung No Significant change
Roh LERI 141000Z VRB02KT CAVOK 24/04 Q1025 NOSIG

VFR

22°C / 4°C

[Mehr]
Wind 2kt
Sichtweite 9700m
Wetter -
Wolken Clouds and Visibility OK
Druck 1025
Änderung No Significant change
Roh LERI 140930Z VRB02KT CAVOK 22/04 Q1025 NOSIG

VFR

21°C / 4°C

[Mehr]
Wind 1kt
Sichtweite 9700m
Wetter -
Wolken Clouds and Visibility OK
Druck 1026
Änderung No Significant change
Roh LERI 140900Z VRB01KT CAVOK 21/04 Q1026 NOSIG

VFR

19°C / 4°C

[Mehr]
Wind 1kt
Sichtweite 9700m
Wetter -
Wolken Clouds and Visibility OK
Druck 1026
Änderung No Significant change
Roh LERI 140830Z VRB01KT CAVOK 19/04 Q1026 NOSIG

VFR

18°C / 4°C

[Mehr]
Wind 2kt
Sichtweite 9700m
Wetter -
Wolken Clouds and Visibility OK
Druck 1026
Änderung No Significant change
Roh LERI 140800Z VRB02KT CAVOK 18/04 Q1026 NOSIG

VFR

16°C / 4°C

[Mehr]
Wind 2kt
Sichtweite 9700m
Wetter -
Wolken Clouds and Visibility OK
Druck 1026
Änderung No Significant change
Roh LERI 140730Z VRB02KT CAVOK 16/04 Q1026 NOSIG

VFR

13°C / 4°C

[Mehr]
Wind 1kt
Sichtweite 9700m
Wetter -
Wolken Clouds and Visibility OK
Druck 1026
Änderung No Significant change
Roh LERI 140700Z VRB01KT CAVOK 13/04 Q1026 NOSIG

VFR

10°C / 5°C

[Mehr]
Wind 2kt
Sichtweite 9700m
Wetter -
Wolken Clouds and Visibility OK
Druck 1026
Änderung No Significant change
Roh LERI 140630Z VRB02KT CAVOK 10/05 Q1026 NOSIG

TAF für Alcantarilla (LERI)

From till


Maximum Temperature 30ºC on . Minimum Temperature 11ºC on .
From till Wind 150º 10kt. Visibility 9700m. Nil Significant Cloud.
Becoming from till
Becoming from till

Roh: TAF LERI 141700Z 1418/1518 15010KT CAVOK TX30/1515Z TN11/1506Z BECMG 1418/1420 VRB02KT BECMG 1513/1515 18013KT

Radar- und Niederschlags-Nowcast für Alcantarilla

Nieselregen
Leicht
Moderat
Stark
Sehr schwer
Hagel

Die Ortsmarkierung zeigt auf Alcantarilla. Diese Animation zeigt das Niederschlagsradar für den ausgewählten Zeitraum sowie eine 2h-Vorhersage. Orange Kreuze zeigen Blitze an. Daten bereitgestellt von nowcast.de (verfügbar in den USA, Europa, Australien). Nieselregen oder leichter Schneefall können für den Radar unsichtbar sein. Die Niederschlagsintensität ist farbcodiert und reicht von hellblau bis rot.

Aktuelle Satelliten- und Regenbilder für Alcantarilla, Spanien

Die Standortmarkierung ist platziert auf Alcantarilla. [Mehr]

Das Echtzeit-Satellitenbild kombiniert sichtbares Licht während des Tages mit Infrarotstrahlung während der Nacht. Nachts ist das Bild nicht dunkel, da Infrarotstrahlung Temperaturunterschiede erkennen kann. Leider sind niedrige Wolken und Nebel nur schwer von den Bodentemperaturen zu unterscheiden und können daher nachts fast unsichtbar sein. Meteosat-Satellitenbilder für Europa werden alle 5 Minuten in Echtzeit aktualisiert. Die Bilder GOES-16 / GOES-17 (Nord- und Südamerika) und Himawari (Asien) werden alle 10 Minuten aktualisiert.

Niederschläge werden von Radar und Satelliten berechnet. Nachts sind die Niederschlagsberechnungen durch die Satelliten weniger genau als tagsüber.

© 2024 meteoblue, NOAA Satellites GOES-16 and EUMETSAT. Blitzdaten zur Verfügung gestellt von nowcast.

Zum Anfang
×
Hallo,
es scheint, als würden Sie einen Werbeblocker benutzen.

Werbung ist unerlässlich, um unsere kostenlose Website mit einzigartiger Detailtreue und Genauigkeit zu pflegen.

Bitte setzen Sie www.meteoblue.com auf die Whitelist Ihres Werbeblockers oder erwägen Sie den Kauf eines unserer Produkte:

Sie haben bereits ein Abonnement?
Dann melden Sie sich bitte an.